createdAt,value
2023-04-26T00:00:36.373Z,98567.95
2023-04-26T00:03:04.209Z,98568.25
2023-04-26T00:05:32.779Z,98567.91
2023-04-26T00:08:00.078Z,98567.60
2023-04-26T00:10:27.321Z,98571.36
2023-04-26T00:12:54.568Z,98574.76
2023-04-26T00:15:21.916Z,98573.55
2023-04-26T00:17:50.348Z,98573.44
2023-04-26T00:20:17.964Z,98575.25
2023-04-26T00:22:46.246Z,98577.26
2023-04-26T00:25:13.697Z,98580.80
2023-04-26T00:27:41.198Z,98584.26
2023-04-26T00:30:08.720Z,98584.35
2023-04-26T00:32:36.699Z,98586.52
2023-04-26T00:35:07.420Z,98586.19
2023-04-26T00:37:35.796Z,98582.79
2023-04-26T00:40:03.258Z,98584.09
2023-04-26T00:42:31.158Z,98579.29
2023-04-26T00:44:58.982Z,98582.17
2023-04-26T00:47:26.265Z,98582.29
2023-04-26T00:49:53.475Z,98582.15
2023-04-26T00:52:21.454Z,98581.78
2023-04-26T00:54:48.706Z,98578.75
2023-04-26T00:57:16.263Z,98574.82
2023-04-26T00:59:43.517Z,98578.65
2023-04-26T01:02:10.700Z,98575.99
2023-04-26T01:04:39.661Z,98571.08
2023-04-26T01:07:07.936Z,98570.09
2023-04-26T01:09:35.342Z,98567.35
2023-04-26T01:12:02.747Z,98565.45
2023-04-26T01:14:30.116Z,98557.37
2023-04-26T01:16:57.544Z,98554.69
2023-04-26T01:19:25.423Z,98545.58
2023-04-26T01:21:52.992Z,98539.16
2023-04-26T01:24:22.594Z,98535.10
2023-04-26T01:26:50.258Z,98527.54
2023-04-26T01:29:18.440Z,98526.69
2023-04-26T01:31:46.350Z,98523.98
2023-04-26T01:34:13.854Z,98514.54
2023-04-26T01:36:41.096Z,98508.43
2023-04-26T01:39:09.103Z,98504.08
2023-04-26T01:41:36.417Z,98497.52
2023-04-26T01:44:03.818Z,98496.95
2023-04-26T01:46:31.823Z,98489.42
2023-04-26T01:48:59.540Z,98491.23
2023-04-26T01:51:27.233Z,98490.50
2023-04-26T01:53:54.306Z,98490.05
2023-04-26T01:56:23.208Z,98488.16
2023-04-26T01:58:50.753Z,98484.05
2023-04-26T02:01:18.565Z,98480.27
2023-04-26T02:03:46.180Z,98475.06
2023-04-26T02:06:13.649Z,98470.77
2023-04-26T02:08:40.997Z,98467.17
2023-04-26T02:11:08.457Z,98462.92
2023-04-26T02:13:37.559Z,98464.86
2023-04-26T02:16:05.944Z,98464.71
2023-04-26T02:18:34.109Z,98464.19
2023-04-26T02:21:01.434Z,98463.44
2023-04-26T02:23:28.926Z,98466.39
2023-04-26T02:25:56.477Z,98466.36
2023-04-26T02:28:23.626Z,98461.49
2023-04-26T02:30:51.119Z,98460.16
2023-04-26T02:33:18.953Z,98456.80
2023-04-26T02:35:47.021Z,98455.30
2023-04-26T02:38:15.173Z,98453.17
2023-04-26T02:40:42.344Z,98454.45
2023-04-26T02:43:10.007Z,98452.09
2023-04-26T02:45:42.682Z,98452.10
2023-04-26T02:48:11.268Z,98451.38
2023-04-26T02:50:38.827Z,98446.73
2023-04-26T02:53:06.382Z,98446.70
2023-04-26T02:55:33.973Z,98445.89
2023-04-26T02:58:01.426Z,98449.44
2023-04-26T03:00:28.959Z,98451.45
2023-04-26T03:02:56.870Z,98458.36
2023-04-26T03:05:25.412Z,98458.08
2023-04-26T03:07:53.063Z,98459.60
2023-04-26T03:10:20.723Z,98460.45
2023-04-26T03:12:48.389Z,98460.54
2023-04-26T03:15:34.176Z,98456.17
2023-04-26T03:18:01.587Z,98454.63
2023-04-26T03:20:29.398Z,98452.46
2023-04-26T03:22:57.280Z,98448.85
2023-04-26T03:25:24.466Z,98450.25
2023-04-26T03:27:52.079Z,98443.81
2023-04-26T03:30:19.846Z,98448.05
2023-04-26T03:32:47.626Z,98445.85
2023-04-26T03:35:15.588Z,98446.14
2023-04-26T03:37:43.034Z,98440.17
2023-04-26T03:40:12.336Z,98438.70
2023-04-26T03:42:40.051Z,98439.30
2023-04-26T03:45:08.476Z,98439.08
2023-04-26T03:47:36.213Z,98440.17
2023-04-26T03:50:03.993Z,98440.65
2023-04-26T03:52:31.564Z,98446.58
2023-04-26T03:54:58.722Z,98449.17
2023-04-26T03:57:26.474Z,98453.18
2023-04-26T03:59:53.827Z,98451.31
2023-04-26T04:02:21.273Z,98449.23
2023-04-26T04:04:49.068Z,98447.40
2023-04-26T04:07:16.859Z,98444.17
2023-04-26T04:09:44.266Z,98439.44
2023-04-26T04:12:11.832Z,98442.61
2023-04-26T04:14:39.381Z,98450.71
2023-04-26T04:17:07.967Z,98448.92
2023-04-26T04:19:36.756Z,98453.05
2023-04-26T04:22:04.065Z,98451.47
2023-04-26T04:24:33.905Z,98448.30
2023-04-26T04:27:03.130Z,98456.08
2023-04-26T04:29:31.392Z,98458.02
2023-04-26T04:31:59.358Z,98458.18
2023-04-26T04:34:27.019Z,98458.36
2023-04-26T04:36:55.000Z,98461.92
2023-04-26T04:39:22.545Z,98458.77
2023-04-26T04:41:51.238Z,98465.45
2023-04-26T04:44:20.384Z,98468.22
2023-04-26T04:46:47.814Z,98472.55
2023-04-26T04:49:15.693Z,98473.85
2023-04-26T04:51:43.210Z,98480.13
2023-04-26T04:54:17.808Z,98484.44
2023-04-26T04:56:46.938Z,98483.35
2023-04-26T04:59:18.276Z,98481.85
2023-04-26T05:01:46.132Z,98475.59
2023-04-26T05:04:15.771Z,98470.83
2023-04-26T05:06:44.176Z,98460.70
2023-04-26T05:09:12.197Z,98460.25
2023-04-26T05:11:39.456Z,98458.67
2023-04-26T05:14:08.041Z,98461.73
2023-04-26T05:16:36.121Z,98466.10
2023-04-26T05:19:03.982Z,98471.60
2023-04-26T05:21:32.077Z,98478.40
2023-04-26T05:23:59.707Z,98478.07
2023-04-26T05:26:27.545Z,98478.21
2023-04-26T05:29:18.589Z,98475.99
2023-04-26T05:32:06.170Z,98468.83
2023-04-26T05:34:53.410Z,98462.96
2023-04-26T05:37:21.196Z,98466.91
2023-04-26T05:39:48.796Z,98466.40
2023-04-26T05:42:17.810Z,98469.15
2023-04-26T05:44:46.130Z,98469.38
2023-04-26T05:47:14.109Z,98463.69
2023-04-26T05:49:41.521Z,98461.71
2023-04-26T05:52:09.270Z,98462.15
2023-04-26T05:54:37.304Z,98457.95
2023-04-26T05:57:05.793Z,98461.27
2023-04-26T05:59:36.212Z,98467.33
2023-04-26T06:02:04.541Z,98480.27
2023-04-26T06:04:32.470Z,98491.39
2023-04-26T06:07:06.774Z,98505.30
2023-04-26T06:09:34.205Z,98517.02
2023-04-26T06:12:03.510Z,98531.80
2023-04-26T06:14:32.168Z,98549.13
2023-04-26T06:17:03.859Z,98562.09
2023-04-26T06:19:31.410Z,98574.64
2023-04-26T06:21:59.096Z,98586.27
2023-04-26T06:24:26.741Z,98595.80
2023-04-26T06:26:54.009Z,98609.97
2023-04-26T06:29:21.366Z,98622.55
2023-04-26T06:31:49.053Z,98636.77
2023-04-26T06:34:17.273Z,98648.55
2023-04-26T06:36:45.531Z,98658.64
2023-04-26T06:39:12.630Z,98653.11
2023-04-26T06:41:41.208Z,98661.09
2023-04-26T06:44:10.750Z,98663.65
2023-04-26T06:46:42.415Z,98665.88
2023-04-26T06:49:29.690Z,98670.42
2023-04-26T06:51:57.443Z,98672.23
2023-04-26T06:54:28.365Z,98670.76
2023-04-26T06:56:55.478Z,98680.91
2023-04-26T06:59:23.868Z,98685.70
2023-04-26T07:01:52.244Z,98689.42
2023-04-26T07:04:20.264Z,98689.95
2023-04-26T07:06:48.371Z,98701.46
2023-04-26T07:09:16.506Z,98702.17
2023-04-26T07:11:45.769Z,98696.73
2023-04-26T07:14:13.133Z,98691.54
2023-04-26T07:16:41.176Z,98690.84
2023-04-26T07:19:10.408Z,98689.16
2023-04-26T07:21:37.703Z,98684.11
2023-04-26T07:24:06.380Z,98682.44
2023-04-26T07:26:34.447Z,98675.75
2023-04-26T07:29:02.323Z,98672.42
2023-04-26T07:31:30.983Z,98671.09
2023-04-26T07:33:58.712Z,98672.66
2023-04-26T07:36:27.620Z,98677.19
2023-04-26T07:38:54.873Z,98681.77
2023-04-26T07:41:22.515Z,98680.23
2023-04-26T07:43:50.453Z,98685.09
2023-04-26T07:46:18.112Z,98695.52
2023-04-26T07:48:45.930Z,98711.21
2023-04-26T07:51:13.317Z,98721.52
2023-04-26T07:53:41.153Z,98728.77
2023-04-26T07:56:08.604Z,98734.88
2023-04-26T07:58:37.088Z,98736.76
2023-04-26T08:01:05.461Z,98730.52
2023-04-26T08:03:32.983Z,98726.95
2023-04-26T08:06:02.089Z,98729.27
2023-04-26T08:08:32.988Z,98725.27
2023-04-26T08:11:00.805Z,98725.61
2023-04-26T08:13:29.623Z,98723.20
2023-04-26T08:15:56.964Z,98729.79
2023-04-26T08:18:25.192Z,98727.64
2023-04-26T08:20:54.882Z,98724.54
2023-04-26T08:23:22.336Z,98725.61
2023-04-26T08:25:49.752Z,98718.67
2023-04-26T08:28:17.099Z,98722.85
2023-04-26T08:30:44.397Z,98723.99
2023-04-26T08:33:11.816Z,98727.45
2023-04-26T08:35:39.373Z,98725.94
2023-04-26T08:38:07.174Z,98727.23
2023-04-26T08:40:37.306Z,98730.73
2023-04-26T08:43:05.302Z,98723.06
2023-04-26T08:45:34.130Z,98720.52
2023-04-26T08:48:11.409Z,98715.04
2023-04-26T08:50:38.723Z,98719.27
2023-04-26T08:53:05.980Z,98717.84
2023-04-26T08:55:33.819Z,98720.27
2023-04-26T08:58:01.426Z,98711.45
2023-04-26T09:00:28.995Z,98712.41
2023-04-26T09:02:56.450Z,98709.42
2023-04-26T09:05:26.477Z,98704.90
2023-04-26T09:07:56.175Z,98703.91
2023-04-26T09:10:23.651Z,98702.64
2023-04-26T09:12:54.305Z,98699.96
2023-04-26T09:15:22.446Z,98703.28
2023-04-26T09:17:51.182Z,98701.61
2023-04-26T09:20:19.846Z,98698.05
2023-04-26T09:22:47.879Z,98696.02
2023-04-26T09:25:16.192Z,98695.63
2023-04-26T09:27:43.958Z,98695.33
2023-04-26T09:30:17.012Z,98694.01
2023-04-26T09:32:47.447Z,98691.79
2023-04-26T09:35:33.998Z,98694.39
2023-04-26T09:38:12.806Z,98692.83
2023-04-26T09:40:41.322Z,98692.98
2023-04-26T09:43:15.577Z,98686.54
2023-04-26T09:45:55.919Z,98689.35
2023-04-26T09:48:28.221Z,98687.77
2023-04-26T09:50:56.162Z,98683.05
2023-04-26T09:53:27.451Z,98680.58
2023-04-26T09:55:56.491Z,98684.63
2023-04-26T09:58:23.997Z,98685.17
2023-04-26T10:00:52.086Z,98682.93
2023-04-26T10:03:20.553Z,98680.23
2023-04-26T10:05:48.167Z,98681.54
2023-04-26T10:08:16.493Z,98681.15
2023-04-26T10:10:45.351Z,98689.41
2023-04-26T10:13:13.126Z,98687.73
2023-04-26T10:15:40.858Z,98684.13
2023-04-26T10:18:08.591Z,98679.65
2023-04-26T10:20:38.433Z,98677.12
2023-04-26T10:23:05.750Z,98675.11
2023-04-26T10:25:38.601Z,98678.75
2023-04-26T10:28:05.727Z,98678.74
2023-04-26T10:30:33.689Z,98675.39
2023-04-26T10:33:01.631Z,98674.66
2023-04-26T10:35:30.669Z,98670.73
2023-04-26T10:38:06.021Z,98672.33
2023-04-26T10:40:34.394Z,98673.66
2023-04-26T10:43:11.684Z,98676.12
2023-04-26T10:45:39.341Z,98677.20
2023-04-26T10:48:20.625Z,98672.48
2023-04-26T10:51:12.654Z,98671.89
2023-04-26T10:53:46.694Z,98672.92
2023-04-26T10:56:23.523Z,98672.75
2023-04-26T10:59:30.605Z,98677.70
2023-04-26T11:01:59.808Z,98673.67
2023-04-26T11:04:47.680Z,98673.02
2023-04-26T11:07:15.850Z,98672.59
2023-04-26T11:09:50.752Z,98672.52
2023-04-26T11:12:18.306Z,98664.71
2023-04-26T11:14:45.881Z,98667.23
2023-04-26T11:17:13.706Z,98667.33
2023-04-26T11:19:41.298Z,98664.96
2023-04-26T11:22:08.956Z,98658.73
2023-04-26T11:24:36.819Z,98662.87
2023-04-26T11:27:07.970Z,98659.98
2023-04-26T11:29:35.837Z,98653.91
2023-04-26T11:32:03.629Z,98658.35
2023-04-26T11:34:31.976Z,98656.77
2023-04-26T11:36:59.498Z,98655.71
2023-04-26T11:39:27.491Z,98659.40
2023-04-26T11:42:05.913Z,98658.61
2023-04-26T11:44:33.803Z,98653.95
2023-04-26T11:47:01.459Z,98653.01
2023-04-26T11:49:29.401Z,98656.50
2023-04-26T11:51:57.073Z,98649.86
2023-04-26T11:54:34.707Z,98651.73
2023-04-26T11:57:02.630Z,98653.08
2023-04-26T11:59:30.450Z,98649.81
2023-04-26T12:01:58.330Z,98646.27
2023-04-26T12:04:30.401Z,98644.55
2023-04-26T12:06:58.032Z,98648.46
2023-04-26T12:09:29.433Z,98647.14
2023-04-26T12:11:58.689Z,98643.65
2023-04-26T12:14:36.037Z,98644.63
2023-04-26T12:17:04.304Z,98642.48
2023-04-26T12:19:32.672Z,98644.42
2023-04-26T12:21:59.926Z,98648.61
2023-04-26T12:24:30.167Z,98647.05
2023-04-26T12:26:58.293Z,98652.84
2023-04-26T12:29:28.402Z,98654.55
2023-04-26T12:31:56.322Z,98652.51
2023-04-26T12:34:23.814Z,98655.52
2023-04-26T12:36:51.427Z,98659.08
2023-04-26T12:39:18.939Z,98663.23
2023-04-26T12:41:46.447Z,98662.61
2023-04-26T12:44:14.568Z,98659.54
2023-04-26T12:46:42.215Z,98659.64
2023-04-26T12:49:09.988Z,98662.33
2023-04-26T12:51:37.397Z,98667.17
2023-04-26T12:54:04.855Z,98666.84
2023-04-26T12:56:33.495Z,98667.80
2023-04-26T12:59:00.809Z,98669.93
2023-04-26T13:01:28.330Z,98671.55
2023-04-26T13:03:56.481Z,98671.11
2023-04-26T13:06:24.371Z,98671.33
2023-04-26T13:08:51.877Z,98671.19
2023-04-26T13:11:19.504Z,98665.29
2023-04-26T13:13:47.471Z,98666.79
2023-04-26T13:16:14.898Z,98669.91
2023-04-26T13:18:42.521Z,98668.23
2023-04-26T13:21:10.257Z,98666.69
2023-04-26T13:23:37.563Z,98665.14
2023-04-26T13:26:05.011Z,98665.91
2023-04-26T13:28:32.480Z,98663.89
2023-04-26T13:31:00.296Z,98663.88
2023-04-26T13:33:28.581Z,98669.26
2023-04-26T13:36:16.415Z,98673.21
2023-04-26T13:38:44.058Z,98673.69
2023-04-26T13:41:11.414Z,98671.45
2023-04-26T13:43:39.082Z,98671.67
2023-04-26T13:46:06.446Z,98667.16
2023-04-26T13:48:34.480Z,98670.79
2023-04-26T13:51:04.913Z,98662.20
2023-04-26T13:53:33.922Z,98660.23
2023-04-26T13:56:01.471Z,98654.79
2023-04-26T13:58:29.339Z,98653.15
2023-04-26T14:00:56.848Z,98648.76
2023-04-26T14:03:26.414Z,98646.96
2023-04-26T14:05:54.280Z,98647.39
2023-04-26T14:08:21.647Z,98646.64
2023-04-26T14:10:49.389Z,98649.91
2023-04-26T14:13:16.647Z,98647.23
2023-04-26T14:15:44.095Z,98644.34
2023-04-26T14:18:11.389Z,98642.33
2023-04-26T14:20:38.892Z,98635.81
2023-04-26T14:23:06.073Z,98633.89
2023-04-26T14:25:34.231Z,98631.11
2023-04-26T14:28:01.540Z,98629.48
2023-04-26T14:30:29.187Z,98630.52
2023-04-26T14:32:56.410Z,98624.70
2023-04-26T14:35:23.861Z,98628.96
2023-04-26T14:37:52.746Z,98623.98
2023-04-26T14:40:19.991Z,98624.27
2023-04-26T14:42:47.453Z,98619.81
2023-04-26T14:45:16.863Z,98622.89
2023-04-26T14:47:47.683Z,98618.73
2023-04-26T14:50:15.041Z,98616.61
2023-04-26T14:52:42.474Z,98618.71
2023-04-26T14:55:09.769Z,98620.05
2023-04-26T14:57:57.577Z,98623.71
2023-04-26T15:00:25.457Z,98625.54
2023-04-26T15:02:53.065Z,98619.55
2023-04-26T15:05:24.274Z,98617.95
2023-04-26T15:07:51.736Z,98616.75
2023-04-26T15:10:18.828Z,98612.79
2023-04-26T15:12:48.162Z,98615.51
2023-04-26T15:15:16.280Z,98614.52
2023-04-26T15:17:43.936Z,98615.91
2023-04-26T15:20:11.792Z,98612.84
2023-04-26T15:22:39.321Z,98609.98
2023-04-26T15:25:07.937Z,98611.38
2023-04-26T15:27:35.323Z,98611.38
2023-04-26T15:30:03.518Z,98615.84
2023-04-26T15:32:31.883Z,98619.88
2023-04-26T15:34:59.360Z,98626.75
2023-04-26T15:37:28.085Z,98622.58
2023-04-26T15:39:55.261Z,98621.44
2023-04-26T15:42:22.663Z,98625.55
2023-04-26T15:44:49.875Z,98627.38
2023-04-26T15:47:17.320Z,98629.02
2023-04-26T15:49:44.928Z,98630.70
2023-04-26T15:52:12.390Z,98629.30
2023-04-26T15:54:40.268Z,98630.48
2023-04-26T15:57:07.805Z,98637.68
2023-04-26T15:59:35.567Z,98638.81
2023-04-26T16:02:03.725Z,98642.02
2023-04-26T16:04:31.519Z,98641.43
2023-04-26T16:06:59.482Z,98643.75
2023-04-26T16:09:26.924Z,98647.01
2023-04-26T16:11:55.634Z,98650.14
2023-04-26T16:14:24.199Z,98650.41
2023-04-26T16:16:51.457Z,98650.27
2023-04-26T16:19:18.914Z,98648.13
2023-04-26T16:21:46.569Z,98647.60
2023-04-26T16:24:13.729Z,98647.88
2023-04-26T16:26:41.591Z,98648.52
2023-04-26T16:29:09.247Z,98651.89
2023-04-26T16:31:36.442Z,98650.89
2023-04-26T16:34:03.969Z,98650.45
2023-04-26T16:36:32.660Z,98653.55
2023-04-26T16:39:00.346Z,98653.30
2023-04-26T16:41:27.655Z,98648.79
2023-04-26T16:43:56.161Z,98643.17
2023-04-26T16:46:23.507Z,98643.61
2023-04-26T16:48:51.000Z,98640.95
2023-04-26T16:51:18.407Z,98641.65
2023-04-26T16:53:48.799Z,98639.56
2023-04-26T16:56:17.649Z,98639.13
2023-04-26T16:58:45.011Z,98639.77
2023-04-26T17:01:12.420Z,98639.41
2023-04-26T17:03:41.022Z,98640.59
2023-04-26T17:06:09.639Z,98640.16
2023-04-26T17:08:37.037Z,98642.35
2023-04-26T17:11:04.319Z,98638.08
2023-04-26T17:13:33.093Z,98643.90
2023-04-26T17:16:02.137Z,98643.46
2023-04-26T17:18:30.711Z,98641.70
2023-04-26T17:20:57.976Z,98639.71
2023-04-26T17:23:25.372Z,98641.30
2023-04-26T17:25:55.362Z,98644.17
2023-04-26T17:28:42.641Z,98646.87
2023-04-26T17:31:09.894Z,98651.52
2023-04-26T17:33:37.368Z,98653.92
2023-04-26T17:36:05.072Z,98652.73
2023-04-26T17:38:32.511Z,98653.54
2023-04-26T17:40:59.837Z,98656.26
2023-04-26T17:43:27.377Z,98656.67
2023-04-26T17:45:55.418Z,98655.39
2023-04-26T17:48:22.466Z,98655.05
2023-04-26T17:50:50.731Z,98655.04
2023-04-26T17:53:19.347Z,98659.68
2023-04-26T17:56:09.513Z,98656.93
2023-04-26T17:58:36.708Z,98658.91
2023-04-26T18:01:04.475Z,98656.06
2023-04-26T18:03:35.669Z,98654.94
2023-04-26T18:06:23.288Z,98656.84
2023-04-26T18:08:50.989Z,98660.29
2023-04-26T18:11:38.479Z,98661.98
2023-04-26T18:14:06.667Z,98660.47
2023-04-26T18:16:34.586Z,98664.40
2023-04-26T18:19:02.121Z,98661.55
2023-04-26T18:21:29.511Z,98667.15
2023-04-26T18:23:58.005Z,98663.34
2023-04-26T18:26:25.536Z,98662.78
2023-04-26T18:28:52.989Z,98665.56
2023-04-26T18:31:22.365Z,98661.81
2023-04-26T18:33:50.712Z,98666.65
2023-04-26T18:36:18.692Z,98661.96
2023-04-26T18:38:46.347Z,98661.80
2023-04-26T18:41:14.137Z,98660.30
2023-04-26T18:43:41.377Z,98662.43
2023-04-26T18:46:08.585Z,98658.31
2023-04-26T18:48:35.869Z,98659.38
2023-04-26T18:51:03.475Z,98658.14
2023-04-26T18:53:31.568Z,98656.90
2023-04-26T18:55:59.484Z,98661.58
2023-04-26T18:58:27.644Z,98658.16
2023-04-26T19:00:54.733Z,98656.15
2023-04-26T19:03:22.267Z,98659.54
2023-04-26T19:05:49.593Z,98658.83
2023-04-26T19:08:17.909Z,98661.48
2023-04-26T19:10:45.557Z,98663.49
2023-04-26T19:13:13.451Z,98664.49
2023-04-26T19:15:40.686Z,98664.54
2023-04-26T19:18:09.593Z,98662.92
2023-04-26T19:20:37.657Z,98663.83
2023-04-26T19:23:05.836Z,98661.26
2023-04-26T19:25:33.915Z,98660.55
2023-04-26T19:28:01.212Z,98661.20
2023-04-26T19:30:28.849Z,98661.66
2023-04-26T19:32:56.953Z,98661.49
2023-04-26T19:35:25.094Z,98660.51
2023-04-26T19:37:52.382Z,98660.86
2023-04-26T19:40:19.323Z,98654.01
2023-04-26T19:42:46.413Z,98656.09
2023-04-26T19:45:13.383Z,98654.58
2023-04-26T19:47:41.879Z,98652.33
2023-04-26T19:50:09.413Z,98647.69
2023-04-26T19:52:36.742Z,98651.57
2023-04-26T19:55:06.430Z,98647.70
2023-04-26T19:57:33.978Z,98647.14
2023-04-26T20:00:01.297Z,98643.82
2023-04-26T20:02:28.999Z,98646.64
2023-04-26T20:04:56.239Z,98646.36
2023-04-26T20:07:23.848Z,98646.71
2023-04-26T20:09:51.406Z,98642.33
2023-04-26T20:12:21.089Z,98646.29
2023-04-26T20:14:49.241Z,98642.56
2023-04-26T20:17:16.486Z,98638.30
2023-04-26T20:19:44.254Z,98640.65
2023-04-26T20:22:12.050Z,98636.64
2023-04-26T20:24:39.422Z,98633.05
2023-04-26T20:27:06.974Z,98630.59
2023-04-26T20:29:35.448Z,98632.02
2023-04-26T20:32:02.838Z,98629.70
2023-04-26T20:34:30.458Z,98631.11
2023-04-26T20:36:57.592Z,98628.63
2023-04-26T20:39:27.807Z,98629.98
2023-04-26T20:41:55.352Z,98625.79
2023-04-26T20:44:22.514Z,98628.87
2023-04-26T20:46:49.666Z,98632.20
2023-04-26T20:49:16.818Z,98632.71
2023-04-26T20:51:43.975Z,98632.95
2023-04-26T20:54:11.145Z,98636.19
2023-04-26T20:56:38.376Z,98637.33
2023-04-26T20:59:07.380Z,98635.30
2023-04-26T21:01:35.798Z,98634.39
2023-04-26T21:04:03.059Z,98635.56
2023-04-26T21:06:30.650Z,98634.77
2023-04-26T21:08:58.050Z,98631.91
2023-04-26T21:11:25.401Z,98630.56
2023-04-26T21:13:53.744Z,98628.95
2023-04-26T21:16:21.202Z,98625.95
2023-04-26T21:18:48.531Z,98623.07
2023-04-26T21:21:15.839Z,98621.98
2023-04-26T21:23:43.017Z,98616.33
2023-04-26T21:26:10.609Z,98616.38
2023-04-26T21:28:37.713Z,98614.86
2023-04-26T21:31:05.816Z,98611.93
2023-04-26T21:33:33.415Z,98609.20
2023-04-26T21:36:00.732Z,98606.21
2023-04-26T21:38:29.146Z,98611.81
2023-04-26T21:40:56.170Z,98606.52
2023-04-26T21:43:24.493Z,98608.09
2023-04-26T21:45:55.017Z,98608.29
2023-04-26T21:48:22.066Z,98606.39
2023-04-26T21:50:49.577Z,98598.58
2023-04-26T21:53:17.037Z,98596.66
2023-04-26T21:55:48.921Z,98597.30
2023-04-26T21:58:16.455Z,98593.42
2023-04-26T22:00:43.415Z,98592.27
2023-04-26T22:03:10.785Z,98588.98
2023-04-26T22:05:38.096Z,98587.18
2023-04-26T22:08:05.481Z,98589.02
2023-04-26T22:10:33.605Z,98581.28
2023-04-26T22:13:00.788Z,98586.75
2023-04-26T22:15:28.440Z,98587.64
2023-04-26T22:17:55.652Z,98587.89
2023-04-26T22:20:22.998Z,98583.26
2023-04-26T22:22:50.354Z,98582.82
2023-04-26T22:25:17.579Z,98579.95
2023-04-26T22:27:44.900Z,98577.85
2023-04-26T22:30:25.478Z,98576.36
2023-04-26T22:32:57.811Z,98576.74
2023-04-26T22:35:28.308Z,98576.98
2023-04-26T22:37:55.735Z,98575.25
2023-04-26T22:40:26.064Z,98571.69
2023-04-26T22:42:54.125Z,98572.98
2023-04-26T22:45:23.351Z,98574.70
2023-04-26T22:47:51.089Z,98575.54
2023-04-26T22:50:18.752Z,98577.04
2023-04-26T22:52:46.530Z,98573.99
2023-04-26T22:55:13.910Z,98570.36
2023-04-26T22:57:41.198Z,98566.54
2023-04-26T23:00:13.405Z,98566.67
2023-04-26T23:02:41.271Z,98563.87
2023-04-26T23:05:11.782Z,98560.55
2023-04-26T23:07:39.214Z,98556.19
2023-04-26T23:10:09.809Z,98555.23
2023-04-26T23:12:47.174Z,98550.75
2023-04-26T23:15:16.154Z,98548.92
2023-04-26T23:17:43.717Z,98543.79
2023-04-26T23:20:11.575Z,98550.19
2023-04-26T23:22:39.722Z,98553.09
2023-04-26T23:25:08.898Z,98550.09
2023-04-26T23:27:37.920Z,98553.49
2023-04-26T23:30:05.222Z,98550.79
2023-04-26T23:32:32.687Z,98548.08
2023-04-26T23:34:59.940Z,98543.31
2023-04-26T23:37:26.953Z,98536.46
2023-04-26T23:39:55.100Z,98540.61
2023-04-26T23:42:21.829Z,98534.79
2023-04-26T23:44:48.884Z,98528.70
2023-04-26T23:47:16.111Z,98523.09
2023-04-26T23:49:43.097Z,98518.88
2023-04-26T23:52:11.038Z,98511.15
2023-04-26T23:54:38.180Z,98506.91
2023-04-26T23:57:05.885Z,98505.38
2023-04-26T23:59:33.341Z,98507.40
